sensor_id;sensor_type;location;lat;lon;timestamp;pressure;altitude;pressure_sealevel;temperature;humidity
20145;BME280;10233;50.814;6.590;2023-03-19T00:00:11;99796.78;;;11.03;100.00
20145;BME280;10233;50.814;6.590;2023-03-19T00:01:12;99792.06;;;11.05;100.00
20145;BME280;10233;50.814;6.590;2023-03-19T00:02:13;99792.47;;;11.02;100.00
20145;BME280;10233;50.814;6.590;2023-03-19T00:03:14;99792.47;;;11.02;100.00
20145;BME280;10233;50.814;6.590;2023-03-19T00:04:14;99789.22;;;11.00;100.00
20145;BME280;10233;50.814;6.590;2023-03-19T00:05:17;99791.31;;;10.98;100.00
20145;BME280;10233;50.814;6.590;2023-03-19T00:06:17;99784.78;;;10.94;100.00
20145;BME280;10233;50.814;6.590;2023-03-19T00:07:18;99785.56;;;10.95;100.00
20145;BME280;10233;50.814;6.590;2023-03-19T00:08:19;99787.00;;;10.97;100.00
20145;BME280;10233;50.814;6.590;2023-03-19T00:09:20;99788.81;;;11.03;100.00
20145;BME280;10233;50.814;6.590;2023-03-19T00:10:21;99790.69;;;10.96;100.00
20145;BME280;10233;50.814;6.590;2023-03-19T00:11:22;99794.34;;;11.02;100.00
20145;BME280;10233;50.814;6.590;2023-03-19T00:12:22;99786.41;;;10.95;100.00
20145;BME280;10233;50.814;6.590;2023-03-19T00:13:23;99792.59;;;10.89;100.00
20145;BME280;10233;50.814;6.590;2023-03-19T00:14:23;99788.72;;;10.85;100.00
20145;BME280;10233;50.814;6.590;2023-03-19T00:15:24;99792.84;;;10.81;100.00
20145;BME280;10233;50.814;6.590;2023-03-19T00:16:25;99791.00;;;10.82;100.00
20145;BME280;10233;50.814;6.590;2023-03-19T00:17:26;99800.63;;;10.76;100.00
20145;BME280;10233;50.814;6.590;2023-03-19T00:18:27;99802.25;;;10.77;100.00
20145;BME280;10233;50.814;6.590;2023-03-19T00:19:27;99805.19;;;10.69;100.00
20145;BME280;10233;50.814;6.590;2023-03-19T00:20:28;99805.03;;;10.64;100.00
20145;BME280;10233;50.814;6.590;2023-03-19T00:21:29;99809.88;;;10.67;100.00
20145;BME280;10233;50.814;6.590;2023-03-19T00:22:30;99807.50;;;10.59;100.00
20145;BME280;10233;50.814;6.590;2023-03-19T00:23:31;99811.66;;;10.42;100.00
20145;BME280;10233;50.814;6.590;2023-03-19T00:24:32;99807.78;;;10.38;100.00
20145;BME280;10233;50.814;6.590;2023-03-19T00:25:32;99817.81;;;10.36;100.00
20145;BME280;10233;50.814;6.590;2023-03-19T00:26:33;99808.78;;;10.50;100.00
20145;BME280;10233;50.814;6.590;2023-03-19T00:27:35;99812.47;;;10.49;100.00
20145;BME280;10233;50.814;6.590;2023-03-19T00:28:36;99812.03;;;10.46;100.00
20145;BME280;10233;50.814;6.590;2023-03-19T00:29:37;99798.56;;;10.47;100.00
20145;BME280;10233;50.814;6.590;2023-03-19T00:30:37;99802.88;;;10.42;100.00
20145;BME280;10233;50.814;6.590;2023-03-19T00:31:39;99803.50;;;10.37;100.00
20145;BME280;10233;50.814;6.590;2023-03-19T00:32:40;99806.19;;;10.31;100.00
20145;BME280;10233;50.814;6.590;2023-03-19T00:33:41;99801.88;;;10.36;100.00
20145;BME280;10233;50.814;6.590;2023-03-19T00:34:42;99799.03;;;10.31;100.00
20145;BME280;10233;50.814;6.590;2023-03-19T00:35:43;99804.56;;;10.30;100.00
20145;BME280;10233;50.814;6.590;2023-03-19T00:36:47;99798.28;;;10.24;100.00
20145;BME280;10233;50.814;6.590;2023-03-19T00:37:48;99795.19;;;10.21;100.00
20145;BME280;10233;50.814;6.590;2023-03-19T00:38:48;99800.50;;;10.21;100.00
20145;BME280;10233;50.814;6.590;2023-03-19T00:39:49;99795.66;;;10.11;100.00
20145;BME280;10233;50.814;6.590;2023-03-19T00:40:50;99796.22;;;10.20;100.00
20145;BME280;10233;50.814;6.590;2023-03-19T00:41:51;99794.81;;;10.17;100.00
20145;BME280;10233;50.814;6.590;2023-03-19T00:42:51;99797.88;;;10.14;100.00
20145;BME280;10233;50.814;6.590;2023-03-19T00:43:54;99798.31;;;10.11;100.00
20145;BME280;10233;50.814;6.590;2023-03-19T00:44:55;99793.19;;;10.10;100.00
20145;BME280;10233;50.814;6.590;2023-03-19T00:45:59;99804.00;;;10.15;100.00
20145;BME280;10233;50.814;6.590;2023-03-19T00:47:00;99804.59;;;10.17;100.00
20145;BME280;10233;50.814;6.590;2023-03-19T00:48:01;99799.72;;;10.14;100.00
20145;BME280;10233;50.814;6.590;2023-03-19T00:49:01;99803.19;;;10.14;100.00
20145;BME280;10233;50.814;6.590;2023-03-19T00:50:03;99806.09;;;10.06;100.00
20145;BME280;10233;50.814;6.590;2023-03-19T00:51:06;99807.31;;;10.10;100.00
20145;BME280;10233;50.814;6.590;2023-03-19T00:52:07;99803.44;;;10.06;100.00
20145;BME280;10233;50.814;6.590;2023-03-19T00:53:07;99806.47;;;10.16;100.00
20145;BME280;10233;50.814;6.590;2023-03-19T00:54:10;99793.59;;;10.13;100.00
20145;BME280;10233;50.814;6.590;2023-03-19T00:55:10;99797.09;;;10.07;100.00
20145;BME280;10233;50.814;6.590;2023-03-19T00:56:13;99800.34;;;10.03;100.00
20145;BME280;10233;50.814;6.590;2023-03-19T00:57:14;99809.72;;;10.12;100.00
20145;BME280;10233;50.814;6.590;2023-03-19T00:58:14;99804.47;;;10.05;100.00
20145;BME280;10233;50.814;6.590;2023-03-19T00:59:15;99807.31;;;9.97;100.00
20145;BME280;10233;50.814;6.590;2023-03-19T01:00:18;99810.56;;;9.99;100.00
20145;BME280;10233;50.814;6.590;2023-03-19T01:01:20;99802.41;;;10.07;100.00
20145;BME280;10233;50.814;6.590;2023-03-19T01:02:20;99804.47;;;9.92;100.00
20145;BME280;10233;50.814;6.590;2023-03-19T01:03:21;99811.22;;;9.88;100.00
20145;BME280;10233;50.814;6.590;2023-03-19T01:04:22;99808.78;;;9.80;100.00
20145;BME280;10233;50.814;6.590;2023-03-19T01:05:23;99811.03;;;9.70;100.00
20145;BME280;10233;50.814;6.590;2023-03-19T01:06:24;99811.84;;;9.77;100.00
20145;BME280;10233;50.814;6.590;2023-03-19T01:07:25;99807.56;;;9.76;100.00
20145;BME280;10233;50.814;6.590;2023-03-19T01:08:26;99805.13;;;9.68;100.00
20145;BME280;10233;50.814;6.590;2023-03-19T01:09:27;99804.34;;;9.61;100.00
20145;BME280;10233;50.814;6.590;2023-03-19T01:10:27;99807.78;;;9.62;100.00
20145;BME280;10233;50.814;6.590;2023-03-19T01:11:28;99801.06;;;9.53;100.00
20145;BME280;10233;50.814;6.590;2023-03-19T01:12:29;99812.31;;;9.61;100.00
20145;BME280;10233;50.814;6.590;2023-03-19T01:13:29;99809.03;;;9.53;100.00
20145;BME280;10233;50.814;6.590;2023-03-19T01:14:31;99813.13;;;9.49;100.00
20145;BME280;10233;50.814;6.590;2023-03-19T01:15:35;99811.06;;;9.57;100.00
20145;BME280;10233;50.814;6.590;2023-03-19T01:16:36;99812.91;;;9.50;100.00
20145;BME280;10233;50.814;6.590;2023-03-19T01:17:37;99815.53;;;9.70;100.00
20145;BME280;10233;50.814;6.590;2023-03-19T01:18:38;99813.47;;;9.78;100.00
20145;BME280;10233;50.814;6.590;2023-03-19T01:19:39;99804.09;;;9.76;100.00
20145;BME280;10233;50.814;6.590;2023-03-19T01:20:40;99803.50;;;9.67;100.00
20145;BME280;10233;50.814;6.590;2023-03-19T01:21:42;99799.44;;;9.65;100.00
20145;BME280;10233;50.814;6.590;2023-03-19T01:22:47;99806.16;;;9.67;100.00
20145;BME280;10233;50.814;6.590;2023-03-19T01:23:47;99797.38;;;9.67;100.00
20145;BME280;10233;50.814;6.590;2023-03-19T01:24:49;99807.97;;;9.73;100.00
20145;BME280;10233;50.814;6.590;2023-03-19T01:25:50;99804.50;;;9.79;100.00
20145;BME280;10233;50.814;6.590;2023-03-19T01:26:51;99807.53;;;9.83;100.00
20145;BME280;10233;50.814;6.590;2023-03-19T01:28:04;99805.31;;;9.86;100.00
20145;BME280;10233;50.814;6.590;2023-03-19T01:29:08;99809.97;;;9.91;100.00
20145;BME280;10233;50.814;6.590;2023-03-19T01:30:09;99810.56;;;9.99;100.00
20145;BME280;10233;50.814;6.590;2023-03-19T01:31:39;99808.31;;;10.09;100.00
20145;BME280;10233;50.814;6.590;2023-03-19T01:32:55;99805.06;;;10.07;100.00
20145;BME280;10233;50.814;6.590;2023-03-19T01:34:10;99807.13;;;10.05;100.00
20145;BME280;10233;50.814;6.590;2023-03-19T01:35:20;99810.16;;;10.09;100.00
20145;BME280;10233;50.814;6.590;2023-03-19T01:36:21;99804.66;;;10.10;100.00
20145;BME280;10233;50.814;6.590;2023-03-19T01:37:32;99807.88;;;10.25;100.00
20145;BME280;10233;50.814;6.590;2023-03-19T01:38:33;99801.16;;;10.16;100.00
20145;BME280;10233;50.814;6.590;2023-03-19T01:39:38;99800.31;;;10.22;100.00
20145;BME280;10233;50.814;6.590;2023-03-19T01:40:44;99800.72;;;10.19;100.00
20145;BME280;10233;50.814;6.590;2023-03-19T01:41:47;99805.03;;;10.20;100.00
20145;BME280;10233;50.814;6.590;2023-03-19T01:44:37;99798.88;;;10.26;100.00
20145;BME280;10233;50.814;6.590;2023-03-19T01:46:28;99803.59;;;10.24;100.00
20145;BME280;10233;50.814;6.590;2023-03-19T01:48:02;99803.53;;;10.31;100.00
20145;BME280;10233;50.814;6.590;2023-03-19T01:49:18;99806.59;;;10.34;100.00
20145;BME280;10233;50.814;6.590;2023-03-19T01:50:32;99801.69;;;10.31;100.00
20145;BME280;10233;50.814;6.590;2023-03-19T01:51:54;99795.34;;;10.39;100.00
20145;BME280;10233;50.814;6.590;2023-03-19T01:53:15;99797.78;;;10.40;100.00
20145;BME280;10233;50.814;6.590;2023-03-19T01:54:26;99792.03;;;10.43;100.00
20145;BME280;10233;50.814;6.590;2023-03-19T01:56:11;99787.34;;;10.45;100.00
20145;BME280;10233;50.814;6.590;2023-03-19T01:57:27;99790.41;;;10.42;100.00
20145;BME280;10233;50.814;6.590;2023-03-19T01:59:14;99795.34;;;10.39;100.00
20145;BME280;10233;50.814;6.590;2023-03-19T02:00:29;99790.59;;;10.41;100.00
20145;BME280;10233;50.814;6.590;2023-03-19T02:01:31;99789.16;;;10.45;100.00
20145;BME280;10233;50.814;6.590;2023-03-19T02:02:35;99787.53;;;10.44;100.00
20145;BME280;10233;50.814;6.590;2023-03-19T02:03:49;99777.28;;;10.47;100.00
20145;BME280;10233;50.814;6.590;2023-03-19T02:04:59;99784.22;;;10.48;100.00
20145;BME280;10233;50.814;6.590;2023-03-19T02:06:01;99788.72;;;10.54;100.00
20145;BME280;10233;50.814;6.590;2023-03-19T02:07:05;99788.28;;;10.57;100.00
20145;BME280;10233;50.814;6.590;2023-03-19T02:08:10;99784.84;;;10.50;100.00
20145;BME280;10233;50.814;6.590;2023-03-19T02:09:13;99782.34;;;10.62;100.00
20145;BME280;10233;50.814;6.590;2023-03-19T02:10:15;99783.00;;;10.51;100.00
20145;BME280;10233;50.814;6.590;2023-03-19T02:11:17;99784.22;;;10.48;100.00
20145;BME280;10233;50.814;6.590;2023-03-19T02:12:18;99794.84;;;10.55;100.00
20145;BME280;10233;50.814;6.590;2023-03-19T02:13:18;99786.66;;;10.56;100.00
20145;BME280;10233;50.814;6.590;2023-03-19T02:14:20;99792.16;;;10.61;100.00
20145;BME280;10233;50.814;6.590;2023-03-19T02:15:21;99791.09;;;10.62;100.00
20145;BME280;10233;50.814;6.590;2023-03-19T02:16:22;99791.94;;;10.63;100.00
20145;BME280;10233;50.814;6.590;2023-03-19T02:17:24;99797.63;;;10.66;100.00
20145;BME280;10233;50.814;6.590;2023-03-19T02:18:25;99794.78;;;10.68;100.00
20145;BME280;10233;50.814;6.590;2023-03-19T02:21:06;99796.34;;;10.75;100.00
20145;BME280;10233;50.814;6.590;2023-03-19T02:22:09;99796.31;;;10.82;100.00
20145;BME280;10233;50.814;6.590;2023-03-19T02:24:52;99794.22;;;10.90;100.00
20145;BME280;10233;50.814;6.590;2023-03-19T02:25:59;99790.50;;;10.91;100.00
20145;BME280;10233;50.814;6.590;2023-03-19T02:27:01;99789.72;;;10.91;100.00
20145;BME280;10233;50.814;6.590;2023-03-19T02:28:03;99790.13;;;10.88;100.00
20145;BME280;10233;50.814;6.590;2023-03-19T02:29:03;99788.63;;;10.98;100.00
20145;BME280;10233;50.814;6.590;2023-03-19T02:30:28;99785.94;;;11.05;100.00
20145;BME280;10233;50.814;6.590;2023-03-19T02:31:30;99781.47;;;10.99;100.00
20145;BME280;10233;50.814;6.590;2023-03-19T02:32:31;99787.44;;;10.94;100.00
20145;BME280;10233;50.814;6.590;2023-03-19T02:33:32;99783.78;;;10.89;100.00
20145;BME280;10233;50.814;6.590;2023-03-19T02:34:41;99788.31;;;10.88;100.00
20145;BME280;10233;50.814;6.590;2023-03-19T02:35:44;99787.84;;;10.91;100.00
20145;BME280;10233;50.814;6.590;2023-03-19T02:36:54;99790.31;;;10.93;100.00
20145;BME280;10233;50.814;6.590;2023-03-19T02:37:57;99786.16;;;11.03;100.00
20145;BME280;10233;50.814;6.590;2023-03-19T02:38:59;99789.41;;;11.05;100.00
20145;BME280;10233;50.814;6.590;2023-03-19T02:40:06;99785.28;;;11.09;100.00
20145;BME280;10233;50.814;6.590;2023-03-19T02:41:09;99778.75;;;11.05;100.00
20145;BME280;10233;50.814;6.590;2023-03-19T02:42:13;99781.25;;;11.00;100.00
20145;BME280;10233;50.814;6.590;2023-03-19T02:43:15;99793.97;;;10.98;100.00
20145;BME280;10233;50.814;6.590;2023-03-19T02:44:15;99789.66;;;10.97;100.00
20145;BME280;10233;50.814;6.590;2023-03-19T02:45:19;99784.94;;;10.99;100.00
20145;BME280;10233;50.814;6.590;2023-03-19T02:46:20;99781.84;;;11.02;100.00
20145;BME280;10233;50.814;6.590;2023-03-19T02:47:21;99783.53;;;10.97;100.00
20145;BME280;10233;50.814;6.590;2023-03-19T02:48:23;99782.13;;;10.94;100.00
20145;BME280;10233;50.814;6.590;2023-03-19T02:49:24;99780.69;;;10.92;100.00
20145;BME280;10233;50.814;6.590;2023-03-19T02:50:25;99783.56;;;10.90;100.00
20145;BME280;10233;50.814;6.590;2023-03-19T02:51:25;99793.84;;;10.87;100.00
20145;BME280;10233;50.814;6.590;2023-03-19T02:52:26;99785.84;;;10.87;100.00
20145;BME280;10233;50.814;6.590;2023-03-19T02:53:27;99793.22;;;10.85;100.00
20145;BME280;10233;50.814;6.590;2023-03-19T02:54:27;99788.38;;;10.75;100.00
20145;BME280;10233;50.814;6.590;2023-03-19T02:55:29;99798.81;;;10.77;100.00
20145;BME280;10233;50.814;6.590;2023-03-19T02:56:29;99795.97;;;10.72;100.00
20145;BME280;10233;50.814;6.590;2023-03-19T02:57:30;99793.53;;;10.70;100.00
20145;BME280;10233;50.814;6.590;2023-03-19T02:58:31;99793.94;;;10.67;100.00
20145;BME280;10233;50.814;6.590;2023-03-19T02:59:31;99792.97;;;10.62;100.00
20145;BME280;10233;50.814;6.590;2023-03-19T03:00:32;99795.19;;;10.65;100.00
20145;BME280;10233;50.814;6.590;2023-03-19T03:01:33;99799.50;;;10.66;100.00
20145;BME280;10233;50.814;6.590;2023-03-19T03:02:33;99798.59;;;10.78;100.00
20145;BME280;10233;50.814;6.590;2023-03-19T03:03:34;99789.25;;;10.69;100.00
20145;BME280;10233;50.814;6.590;2023-03-19T03:04:35;99798.47;;;10.67;100.00
20145;BME280;10233;50.814;6.590;2023-03-19T03:05:36;99792.72;;;10.63;100.00
20145;BME280;10233;50.814;6.590;2023-03-19T03:06:37;99795.66;;;10.55;100.00
20145;BME280;10233;50.814;6.590;2023-03-19T03:07:38;99796.28;;;10.51;100.00
20145;BME280;10233;50.814;6.590;2023-03-19T03:08:39;99801.00;;;10.49;100.00
20145;BME280;10233;50.814;6.590;2023-03-19T03:09:41;99807.88;;;10.63;100.00
20145;BME280;10233;50.814;6.590;2023-03-19T03:10:42;99796.69;;;10.54;100.00
20145;BME280;10233;50.814;6.590;2023-03-19T03:11:43;99801.38;;;10.52;100.00
20145;BME280;10233;50.814;6.590;2023-03-19T03:12:44;99800.97;;;10.55;100.00
20145;BME280;10233;50.814;6.590;2023-03-19T03:13:45;99798.75;;;10.46;100.00
20145;BME280;10233;50.814;6.590;2023-03-19T03:14:46;99805.75;;;10.40;100.00
20145;BME280;10233;50.814;6.590;2023-03-19T03:15:47;99803.50;;;10.37;100.00
20145;BME280;10233;50.814;6.590;2023-03-19T03:16:48;99799.22;;;10.36;100.00
20145;BME280;10233;50.814;6.590;2023-03-19T03:17:48;99796.16;;;10.39;100.00
20145;BME280;10233;50.814;6.590;2023-03-19T03:18:49;99798.00;;;10.32;100.00
20145;BME280;10233;50.814;6.590;2023-03-19T03:19:51;99798.88;;;10.26;100.00
20145;BME280;10233;50.814;6.590;2023-03-19T03:20:53;99801.53;;;10.26;100.00
20145;BME280;10233;50.814;6.590;2023-03-19T03:21:53;99807.25;;;10.23;100.00
20145;BME280;10233;50.814;6.590;2023-03-19T03:22:55;99805.22;;;10.19;100.00
20145;BME280;10233;50.814;6.590;2023-03-19T03:23:55;99810.88;;;10.35;100.00
20145;BME280;10233;50.814;6.590;2023-03-19T03:24:56;99807.06;;;10.18;100.00
20145;BME280;10233;50.814;6.590;2023-03-19T03:25:56;99808.09;;;10.17;100.00
20145;BME280;10233;50.814;6.590;2023-03-19T03:26:57;99814.63;;;10.15;100.00
20145;BME280;10233;50.814;6.590;2023-03-19T03:27:57;99821.41;;;10.04;100.00
20145;BME280;10233;50.814;6.590;2023-03-19T03:28:58;99815.06;;;9.99;100.00
20145;BME280;10233;50.814;6.590;2023-03-19T03:29:59;99817.34;;;9.95;100.00
20145;BME280;10233;50.814;6.590;2023-03-19T03:31:00;99822.22;;;9.98;100.00
20145;BME280;10233;50.814;6.590;2023-03-19T03:32:01;99816.91;;;9.98;100.00
20145;BME280;10233;50.814;6.590;2023-03-19T03:33:02;99818.72;;;10.11;100.00
20145;BME280;10233;50.814;6.590;2023-03-19T03:34:03;99818.75;;;10.04;100.00
20145;BME280;10233;50.814;6.590;2023-03-19T03:35:05;99819.94;;;10.02;100.00
20145;BME280;10233;50.814;6.590;2023-03-19T03:36:06;99819.75;;;10.03;100.00
20145;BME280;10233;50.814;6.590;2023-03-19T03:37:07;99819.56;;;9.98;100.00
20145;BME280;10233;50.814;6.590;2023-03-19T03:38:09;99826.94;;;9.96;100.00
20145;BME280;10233;50.814;6.590;2023-03-19T03:39:10;99824.47;;;9.95;100.00
20145;BME280;10233;50.814;6.590;2023-03-19T03:40:11;99828.31;;;10.12;100.00
20145;BME280;10233;50.814;6.590;2023-03-19T03:41:15;99824.25;;;10.03;100.00
20145;BME280;10233;50.814;6.590;2023-03-19T03:42:16;99824.69;;;10.06;100.00
20145;BME280;10233;50.814;6.590;2023-03-19T03:43:19;99824.88;;;9.98;100.00
20145;BME280;10233;50.814;6.590;2023-03-19T03:44:20;99823.44;;;9.96;100.00
20145;BME280;10233;50.814;6.590;2023-03-19T03:45:21;99831.41;;;9.96;100.00
20145;BME280;10233;50.814;6.590;2023-03-19T03:46:24;99823.84;;;9.99;100.00
20145;BME280;10233;50.814;6.590;2023-03-19T03:47:25;99826.94;;;9.96;100.00
20145;BME280;10233;50.814;6.590;2023-03-19T03:48:26;99817.34;;;9.95;100.00
20145;BME280;10233;50.814;6.590;2023-03-19T03:49:26;99816.91;;;9.98;100.00
20145;BME280;10233;50.814;6.590;2023-03-19T03:50:27;99820.59;;;9.97;100.00
20145;BME280;10233;50.814;6.590;2023-03-19T03:51:30;99812.63;;;9.91;100.00
20145;BME280;10233;50.814;6.590;2023-03-19T03:52:32;99818.59;;;9.80;100.00
20145;BME280;10233;50.814;6.590;2023-03-19T03:53:33;99814.91;;;9.74;100.00
20145;BME280;10233;50.814;6.590;2023-03-19T03:54:35;99810.25;;;9.70;100.00
20145;BME280;10233;50.814;6.590;2023-03-19T03:55:36;99815.53;;;9.70;100.00
20145;BME280;10233;50.814;6.590;2023-03-19T03:56:37;99811.03;;;9.70;100.00
20145;BME280;10233;50.814;6.590;2023-03-19T03:57:37;99811.88;;;9.64;100.00
20145;BME280;10233;50.814;6.590;2023-03-19T03:58:38;99820.66;;;9.65;100.00
20145;BME280;10233;50.814;6.590;2023-03-19T03:59:38;99815.94;;;9.60;100.00
20145;BME280;10233;50.814;6.590;2023-03-19T04:00:39;99817.81;;;9.66;100.00
20145;BME280;10233;50.814;6.590;2023-03-19T04:01:40;99818.22;;;9.63;100.00
20145;BME280;10233;50.814;6.590;2023-03-19T04:02:41;99819.63;;;9.72;100.00
20145;BME280;10233;50.814;6.590;2023-03-19T04:03:44;99818.16;;;9.83;100.00
20145;BME280;10233;50.814;6.590;2023-03-19T04:04:46;99818.59;;;9.86;100.00
20145;BME280;10233;50.814;6.590;2023-03-19T04:05:46;99817.75;;;9.79;100.00
20145;BME280;10233;50.814;6.590;2023-03-19T04:06:47;99817.56;;;9.81;100.00
20145;BME280;10233;50.814;6.590;2023-03-19T04:08:01;99813.88;;;9.82;100.00
20145;BME280;10233;50.814;6.590;2023-03-19T04:09:03;99818.78;;;9.91;100.00
20145;BME280;10233;50.814;6.590;2023-03-19T04:10:04;99815.69;;;9.94;100.00
20145;BME280;10233;50.814;6.590;2023-03-19T04:11:06;99817.53;;;9.94;100.00
20145;BME280;10233;50.814;6.590;2023-03-19T04:12:07;99817.16;;;9.90;100.00
20145;BME280;10233;50.814;6.590;2023-03-19T04:13:09;99818.53;;;9.99;100.00
20145;BME280;10233;50.814;6.590;2023-03-19T04:14:12;99817.53;;;10.00;100.00
20145;BME280;10233;50.814;6.590;2023-03-19T04:15:14;99813.78;;;10.27;100.00
20145;BME280;10233;50.814;6.590;2023-03-19T04:16:18;99813.59;;;10.16;100.00
20145;BME280;10233;50.814;6.590;2023-03-19T04:17:19;99821.56;;;10.16;100.00
20145;BME280;10233;50.814;6.590;2023-03-19T04:18:19;99820.16;;;10.13;100.00
20145;BME280;10233;50.814;6.590;2023-03-19T04:19:20;99823.84;;;10.12;100.00
20145;BME280;10233;50.814;6.590;2023-03-19T04:20:21;99827.72;;;10.10;100.00
20145;BME280;10233;50.814;6.590;2023-03-19T04:21:22;99825.28;;;10.08;100.00
20145;BME280;10233;50.814;6.590;2023-03-19T04:22:23;99826.28;;;10.14;100.00
20145;BME280;10233;50.814;6.590;2023-03-19T04:23:24;99830.00;;;10.06;100.00
20145;BME280;10233;50.814;6.590;2023-03-19T04:24:25;99831.41;;;10.02;100.00
20145;BME280;10233;50.814;6.590;2023-03-19T04:25:27;99821.38;;;10.11;100.00
20145;BME280;10233;50.814;6.590;2023-03-19T04:26:27;99829.91;;;10.26;100.00
20145;BME280;10233;50.814;6.590;2023-03-19T04:27:28;99828.09;;;10.20;100.00
20145;BME280;10233;50.814;6.590;2023-03-19T04:28:30;99830.56;;;10.15;100.00
20145;BME280;10233;50.814;6.590;2023-03-19T04:29:30;99824.63;;;10.19;100.00
20145;BME280;10233;50.814;6.590;2023-03-19T04:30:32;99831.34;;;10.28;100.00
20145;BME280;10233;50.814;6.590;2023-03-19T04:31:33;99826.66;;;10.30;100.00
20145;BME280;10233;50.814;6.590;2023-03-19T04:32:34;99833.19;;;10.28;100.00
20145;BME280;10233;50.814;6.590;2023-03-19T04:33:36;99830.94;;;10.25;100.00
20145;BME280;10233;50.814;6.590;2023-03-19T04:34:38;99828.94;;;10.14;100.00
20145;BME280;10233;50.814;6.590;2023-03-19T04:35:38;99824.47;;;10.08;100.00
20145;BME280;10233;50.814;6.590;2023-03-19T04:36:39;99831.41;;;10.02;100.00
20145;BME280;10233;50.814;6.590;2023-03-19T04:37:39;99832.44;;;10.01;100.00
20145;BME280;10233;50.814;6.590;2023-03-19T04:38:42;99840.00;;;10.04;100.00
20145;BME280;10233;50.814;6.590;2023-03-19T04:39:43;99843.06;;;10.01;100.00
20145;BME280;10233;50.814;6.590;2023-03-19T04:40:44;99842.03;;;10.09;100.00
20145;BME280;10233;50.814;6.590;2023-03-19T04:41:46;99834.28;;;10.07;100.00
20145;BME280;10233;50.814;6.590;2023-03-19T04:43:03;99841.19;;;10.15;100.00
20145;BME280;10233;50.814;6.590;2023-03-19T04:44:06;99838.34;;;10.16;100.00
20145;BME280;10233;50.814;6.590;2023-03-19T04:45:08;99835.88;;;10.15;100.00
20145;BME280;10233;50.814;6.590;2023-03-19T04:46:09;99841.41;;;10.13;100.00
20145;BME280;10233;50.814;6.590;2023-03-19T04:47:13;99841.56;;;10.25;100.00
20145;BME280;10233;50.814;6.590;2023-03-19T04:48:23;99848.94;;;10.23;100.00
20145;BME280;10233;50.814;6.590;2023-03-19T04:49:26;99839.31;;;10.28;100.00
20145;BME280;10233;50.814;6.590;2023-03-19T04:50:29;99840.34;;;10.27;100.00
20145;BME280;10233;50.814;6.590;2023-03-19T04:51:29;99837.06;;;10.32;100.00
20145;BME280;10233;50.814;6.590;2023-03-19T04:52:30;99835.75;;;10.47;100.00
20145;BME280;10233;50.814;6.590;2023-03-19T04:53:31;99842.69;;;10.48;100.00
20145;BME280;10233;50.814;6.590;2023-03-19T04:54:32;99830.88;;;10.44;100.00
20145;BME280;10233;50.814;6.590;2023-03-19T04:55:33;99830.81;;;10.51;100.00
20145;BME280;10233;50.814;6.590;2023-03-19T04:56:41;99839.22;;;10.54;100.00
20145;BME280;10233;50.814;6.590;2023-03-19T04:57:42;99837.31;;;10.61;100.00
20145;BME280;10233;50.814;6.590;2023-03-19T04:58:43;99837.31;;;10.61;100.00
20145;BME280;10233;50.814;6.590;2023-03-19T04:59:44;99838.13;;;10.68;100.00
20145;BME280;10233;50.814;6.590;2023-03-19T05:00:47;99838.94;;;10.69;100.00
20145;BME280;10233;50.814;6.590;2023-03-19T05:01:53;99842.94;;;10.84;100.00
20145;BME280;10233;50.814;6.590;2023-03-19T05:02:56;99841.25;;;10.90;100.00
20145;BME280;10233;50.814;6.590;2023-03-19T05:03:57;99835.03;;;11.02;100.00
20145;BME280;10233;50.814;6.590;2023-03-19T05:04:59;99844.03;;;11.01;100.00
20145;BME280;10233;50.814;6.590;2023-03-19T05:05:59;99842.47;;;10.94;100.00
20145;BME280;10233;50.814;6.590;2023-03-19T05:07:00;99839.22;;;10.92;100.00
20145;BME280;10233;50.814;6.590;2023-03-19T05:08:03;99840.41;;;10.96;100.00
20145;BME280;10233;50.814;6.590;2023-03-19T05:09:05;99841.66;;;10.93;100.00
20145;BME280;10233;50.814;6.590;2023-03-19T05:10:08;99834.94;;;10.91;100.00
20145;BME280;10233;50.814;6.590;2023-03-19T05:11:09;99847.38;;;10.97;100.00
20145;BME280;10233;50.814;6.590;2023-03-19T05:12:23;99846.53;;;10.96;100.00
20145;BME280;10233;50.814;6.590;2023-03-19T05:13:25;99846.75;;;10.95;100.00
20145;BME280;10233;50.814;6.590;2023-03-19T05:14:27;99847.41;;;10.90;100.00
20145;BME280;10233;50.814;6.590;2023-03-19T05:15:43;99849.03;;;10.91;100.00
20145;BME280;10233;50.814;6.590;2023-03-19T05:16:45;99851.06;;;10.96;100.00
20145;BME280;10233;50.814;6.590;2023-03-19T05:17:46;99851.88;;;10.90;100.00
20145;BME280;10233;50.814;6.590;2023-03-19T05:18:57;99852.31;;;10.93;100.00
20145;BME280;10233;50.814;6.590;2023-03-19T05:19:58;99856.41;;;10.89;100.00
20145;BME280;10233;50.814;6.590;2023-03-19T05:20:59;99860.91;;;10.89;100.00
20145;BME280;10233;50.814;6.590;2023-03-19T05:22:00;99852.34;;;10.87;100.00
20145;BME280;10233;50.814;6.590;2023-03-19T05:23:05;99853.75;;;10.89;100.00
20145;BME280;10233;50.814;6.590;2023-03-19T05:24:13;99853.78;;;10.83;100.00
20145;BME280;10233;50.814;6.590;2023-03-19T05:25:14;99860.50;;;10.85;100.00
20145;BME280;10233;50.814;6.590;2023-03-19T05:26:15;99846.97;;;10.93;100.00
20145;BME280;10233;50.814;6.590;2023-03-19T05:27:50;99853.53;;;10.91;100.00
20145;BME280;10233;50.814;6.590;2023-03-19T05:28:54;99856.06;;;10.79;100.00
20145;BME280;10233;50.814;6.590;2023-03-19T05:30:04;99854.44;;;10.78;100.00
20145;BME280;10233;50.814;6.590;2023-03-19T05:31:26;99858.72;;;10.79;100.00
20145;BME280;10233;50.814;6.590;2023-03-19T05:32:28;99858.94;;;10.78;100.00
20145;BME280;10233;50.814;6.590;2023-03-19T05:33:30;99854.47;;;10.72;100.00
20145;BME280;10233;50.814;6.590;2023-03-19T05:34:31;99865.69;;;10.74;100.00
20145;BME280;10233;50.814;6.590;2023-03-19T05:35:36;99864.88;;;10.73;100.00
20145;BME280;10233;50.814;6.590;2023-03-19T05:36:42;99861.00;;;10.76;100.00